FYKM

Katima Mulilo Airport

Mpacha, Namibia
METAR FYKM 211200Z 07003KT CAVOK 27/11 Q1019
Observed Flight Rules
May-21 @ 12:00 UTC (15 hours ago) Visual Flight Rules
Wind Visibility Clouds
70° at 3 knots 10,000+ meters
  • Clear skies
Temperatures Readings
Current 27°C / 81°F
Dewpoint 11°C / 52°F
Humidity 37%
Altimeter 30.09" Hg
Pressure 1019 hPa
Elevation 958
METAR FYKM 211200Z 07003KT CAVOK 27/11 Q1019
Observed Flight Rules
May-21 @ 12:00 UTC
(15 hours ago)
VFR
Wind Visibility
70° at 3 knots 10,000+ meters
Clouds
  • Clear skies
Temperature Dewpoint
27°C / 81°F 11°C / 52°F
Humidity Altimeter Pressure
37% 30.09" Hg 1019 hPa